createdAt,value
2023-01-09T00:01:24.082Z,7.61
2023-01-09T00:03:50.692Z,7.60
2023-01-09T00:06:17.159Z,7.58
2023-01-09T00:08:43.636Z,7.56
2023-01-09T00:11:10.708Z,7.62
2023-01-09T00:13:38.412Z,7.71
2023-01-09T00:16:07.480Z,7.73
2023-01-09T00:18:35.759Z,7.58
2023-01-09T00:21:05.011Z,7.59
2023-01-09T00:23:31.885Z,7.62
2023-01-09T00:26:17.919Z,7.53
2023-01-09T00:28:46.340Z,7.47
2023-01-09T00:31:13.805Z,7.46
2023-01-09T00:33:50.413Z,7.54
2023-01-09T00:36:16.819Z,7.35
2023-01-09T00:38:43.401Z,7.51
2023-01-09T00:41:18.300Z,7.63
2023-01-09T00:43:51.695Z,7.57
2023-01-09T00:46:24.827Z,7.41
2023-01-09T00:48:51.584Z,7.12
2023-01-09T00:51:20.515Z,7.22
2023-01-09T00:53:50.044Z,7.30
2023-01-09T00:56:20.409Z,7.30
2023-01-09T00:58:48.356Z,7.20
2023-01-09T01:01:15.275Z,7.18
2023-01-09T01:03:41.907Z,7.09
2023-01-09T01:06:27.206Z,7.09
2023-01-09T01:08:55.736Z,7.16
2023-01-09T01:11:23.254Z,7.13
2023-01-09T01:13:49.771Z,7.12
2023-01-09T01:16:18.136Z,7.11
2023-01-09T01:18:44.921Z,7.11
2023-01-09T01:21:14.155Z,7.07
2023-01-09T01:23:41.065Z,6.92
2023-01-09T01:26:11.758Z,6.91
2023-01-09T01:28:39.379Z,6.88
2023-01-09T01:31:06.294Z,6.86
2023-01-09T01:33:34.221Z,6.85
2023-01-09T01:36:08.403Z,6.86
2023-01-09T01:38:36.421Z,6.84
2023-01-09T01:41:04.352Z,6.81
2023-01-09T01:43:55.116Z,6.76
2023-01-09T01:46:22.105Z,6.78
2023-01-09T01:48:57.076Z,6.79
2023-01-09T01:51:29.582Z,6.89
2023-01-09T01:54:03.801Z,6.92
2023-01-09T01:56:40.588Z,6.95
2023-01-09T01:59:19.037Z,6.96
2023-01-09T02:01:52.103Z,6.98
2023-01-09T02:04:19.318Z,6.99
2023-01-09T02:06:50.891Z,7.00
2023-01-09T02:09:20.358Z,7.01
2023-01-09T02:11:49.703Z,7.03
2023-01-09T02:14:16.787Z,7.01
2023-01-09T02:17:14.919Z,6.92
2023-01-09T02:20:38.447Z,6.85
2023-01-09T02:23:44.341Z,6.93
2023-01-09T02:26:41.595Z,6.85
2023-01-09T02:29:52.612Z,6.87
2023-01-09T02:32:42.897Z,6.90
2023-01-09T02:35:47.283Z,6.94
2023-01-09T02:38:40.704Z,6.85
2023-01-09T02:41:13.316Z,6.88
2023-01-09T02:43:41.591Z,6.94
2023-01-09T02:46:23.032Z,6.92
2023-01-09T02:48:53.536Z,6.94
2023-01-09T02:51:38.016Z,6.90
2023-01-09T02:54:31.556Z,6.86
2023-01-09T02:57:34.699Z,6.84
2023-01-09T03:00:11.444Z,6.90
2023-01-09T03:02:52.508Z,6.94
2023-01-09T03:05:47.280Z,6.85
2023-01-09T03:08:20.617Z,6.88
2023-01-09T03:11:02.486Z,6.86
2023-01-09T03:13:39.463Z,6.86
2023-01-09T03:16:12.259Z,6.79
2023-01-09T03:18:39.739Z,6.81
2023-01-09T03:21:09.440Z,6.84
2023-01-09T03:23:51.203Z,6.82
2023-01-09T03:26:19.054Z,6.85
2023-01-09T03:28:47.394Z,6.81
2023-01-09T03:31:14.981Z,6.82
2023-01-09T03:33:42.520Z,6.84
2023-01-09T03:36:11.919Z,6.87
2023-01-09T03:38:38.630Z,6.84
2023-01-09T03:41:05.675Z,6.87
2023-01-09T03:43:32.431Z,6.96
2023-01-09T03:45:59.457Z,6.99
2023-01-09T03:48:26.088Z,6.93
2023-01-09T03:50:54.483Z,6.88
2023-01-09T03:53:24.899Z,6.93
2023-01-09T03:55:55.138Z,6.87
2023-01-09T03:58:23.681Z,6.82
2023-01-09T04:00:50.784Z,6.81
2023-01-09T04:03:20.119Z,6.86
2023-01-09T04:05:49.738Z,6.85
2023-01-09T04:08:17.647Z,6.84
2023-01-09T04:10:46.240Z,6.74
2023-01-09T04:13:13.223Z,6.78
2023-01-09T04:15:39.844Z,6.78
2023-01-09T04:18:06.880Z,6.77
2023-01-09T04:20:33.739Z,6.74
2023-01-09T04:23:00.417Z,6.75
2023-01-09T04:25:27.484Z,6.78
2023-01-09T04:27:54.052Z,6.72
2023-01-09T04:30:20.564Z,6.62
2023-01-09T04:32:47.099Z,6.52
2023-01-09T04:35:13.694Z,6.46
2023-01-09T04:37:40.218Z,6.47
2023-01-09T04:40:10.620Z,6.43
2023-01-09T04:42:38.444Z,6.28
2023-01-09T04:45:07.042Z,6.20
2023-01-09T04:47:33.649Z,6.09
2023-01-09T04:50:00.991Z,5.90
2023-01-09T04:52:28.455Z,5.86
2023-01-09T04:54:55.004Z,5.74
2023-01-09T04:57:21.507Z,5.64
2023-01-09T04:59:47.966Z,5.46
2023-01-09T05:02:14.690Z,5.28
2023-01-09T05:04:41.296Z,5.22
2023-01-09T05:07:07.951Z,5.19
2023-01-09T05:09:34.607Z,5.19
2023-01-09T05:12:01.909Z,5.11
2023-01-09T05:14:28.579Z,5.01
2023-01-09T05:16:55.022Z,4.95
2023-01-09T05:19:21.514Z,4.96
2023-01-09T05:21:48.055Z,4.91
2023-01-09T05:24:14.843Z,4.86
2023-01-09T05:26:41.355Z,4.76
2023-01-09T05:29:07.862Z,4.66
2023-01-09T05:31:34.367Z,4.56
2023-01-09T05:34:00.894Z,4.50
2023-01-09T05:36:28.129Z,4.57
2023-01-09T05:38:54.655Z,4.47
2023-01-09T05:41:23.547Z,4.31
2023-01-09T05:43:50.619Z,4.22
2023-01-09T05:46:17.107Z,4.27
2023-01-09T05:48:44.739Z,4.33
2023-01-09T05:51:12.170Z,4.33
2023-01-09T05:53:38.682Z,4.27
2023-01-09T05:56:05.533Z,4.30
2023-01-09T05:58:32.018Z,4.31
2023-01-09T06:00:58.997Z,4.40
2023-01-09T06:03:25.485Z,4.55
2023-01-09T06:05:51.969Z,4.73
2023-01-09T06:08:18.443Z,4.76
2023-01-09T06:10:46.964Z,4.88
2023-01-09T06:13:13.784Z,4.98
2023-01-09T06:15:40.293Z,5.06
2023-01-09T06:18:06.858Z,5.12
2023-01-09T06:20:34.083Z,5.15
2023-01-09T06:23:00.637Z,5.20
2023-01-09T06:25:27.165Z,5.25
2023-01-09T06:27:53.737Z,5.21
2023-01-09T06:30:21.004Z,5.15
2023-01-09T06:32:49.554Z,5.16
2023-01-09T06:35:20.738Z,5.19
2023-01-09T06:37:48.588Z,5.17
2023-01-09T06:40:16.286Z,5.26
2023-01-09T06:42:46.504Z,5.28
2023-01-09T06:45:14.316Z,5.28
2023-01-09T06:47:41.318Z,5.35
2023-01-09T06:50:09.393Z,5.29
2023-01-09T06:52:37.309Z,5.27
2023-01-09T06:55:04.245Z,5.30
2023-01-09T06:57:30.779Z,5.37
2023-01-09T06:59:57.848Z,5.38
2023-01-09T07:02:24.711Z,5.37
2023-01-09T07:04:51.318Z,5.32
2023-01-09T07:07:19.384Z,5.24
2023-01-09T07:09:45.933Z,5.28
2023-01-09T07:12:12.907Z,5.32
2023-01-09T07:14:39.438Z,5.40
2023-01-09T07:17:06.365Z,5.45
2023-01-09T07:19:33.216Z,5.50
2023-01-09T07:21:59.653Z,5.52
2023-01-09T07:24:26.251Z,5.58
2023-01-09T07:26:52.687Z,5.67
2023-01-09T07:29:19.119Z,5.57
2023-01-09T07:31:45.646Z,5.54
2023-01-09T07:34:12.230Z,5.51
2023-01-09T07:36:38.778Z,5.52
2023-01-09T07:39:05.268Z,5.46
2023-01-09T07:41:31.756Z,5.47
2023-01-09T07:43:58.292Z,5.46
2023-01-09T07:46:24.861Z,5.50
2023-01-09T07:48:51.354Z,5.53
2023-01-09T07:51:17.847Z,5.63
2023-01-09T07:53:44.325Z,5.51
2023-01-09T07:56:10.931Z,5.48
2023-01-09T07:58:38.362Z,5.52
2023-01-09T08:01:05.197Z,5.57
2023-01-09T08:03:33.433Z,5.53
2023-01-09T08:06:00.723Z,5.63
2023-01-09T08:08:27.751Z,5.68
2023-01-09T08:10:54.349Z,5.69
2023-01-09T08:13:20.936Z,5.79
2023-01-09T08:15:47.542Z,5.83
2023-01-09T08:18:14.177Z,5.80
2023-01-09T08:20:40.611Z,5.83
2023-01-09T08:23:07.138Z,5.84
2023-01-09T08:25:33.659Z,5.89
2023-01-09T08:28:00.181Z,5.91
2023-01-09T08:30:26.697Z,5.93
2023-01-09T08:32:54.397Z,5.92
2023-01-09T08:35:21.132Z,5.95
2023-01-09T08:37:48.925Z,5.98
2023-01-09T08:40:17.790Z,5.97
2023-01-09T08:43:03.305Z,6.03
2023-01-09T08:45:50.621Z,6.10
2023-01-09T08:48:17.440Z,5.95
2023-01-09T08:50:44.500Z,6.02
2023-01-09T08:53:11.637Z,6.20
2023-01-09T08:55:38.639Z,6.29
2023-01-09T08:58:05.121Z,6.31
2023-01-09T09:00:31.576Z,6.36
2023-01-09T09:03:01.022Z,6.46
2023-01-09T09:05:31.625Z,6.48
2023-01-09T09:07:59.876Z,6.46
2023-01-09T09:10:29.410Z,6.49
2023-01-09T09:12:59.007Z,6.53
2023-01-09T09:15:27.715Z,6.41
2023-01-09T09:18:03.584Z,6.46
2023-01-09T09:20:34.082Z,6.47
2023-01-09T09:23:00.885Z,6.52
2023-01-09T09:25:28.524Z,6.55
2023-01-09T09:27:57.923Z,6.61
2023-01-09T09:30:25.145Z,6.67
2023-01-09T09:32:51.756Z,6.67
2023-01-09T09:35:19.130Z,6.72
2023-01-09T09:38:02.006Z,6.71
2023-01-09T09:40:38.527Z,6.65
2023-01-09T09:44:01.775Z,6.51
2023-01-09T09:47:18.250Z,6.60
2023-01-09T09:50:05.790Z,6.72
2023-01-09T09:53:18.912Z,6.68
2023-01-09T09:55:49.536Z,6.68
2023-01-09T09:58:37.524Z,6.63
2023-01-09T10:01:07.112Z,6.53
2023-01-09T10:03:44.995Z,6.59
2023-01-09T10:06:34.410Z,6.67
2023-01-09T10:09:36.008Z,6.67
2023-01-09T10:12:39.164Z,6.67
2023-01-09T10:15:21.123Z,6.67
2023-01-09T10:18:32.781Z,6.73
2023-01-09T10:21:47.983Z,6.81
2023-01-09T10:24:58.053Z,6.92
2023-01-09T10:27:55.406Z,6.84
2023-01-09T10:30:42.905Z,6.92
2023-01-09T10:33:34.380Z,6.99
2023-01-09T10:36:40.311Z,7.01
2023-01-09T10:39:24.678Z,7.06
2023-01-09T10:42:04.492Z,7.14
2023-01-09T10:44:38.761Z,7.27
2023-01-09T10:47:37.957Z,7.22
2023-01-09T10:50:21.133Z,7.25
2023-01-09T10:52:51.270Z,7.29
2023-01-09T10:55:44.610Z,7.37
2023-01-09T10:58:20.253Z,7.34
2023-01-09T11:00:49.892Z,7.36
2023-01-09T11:03:22.855Z,7.44
2023-01-09T11:05:57.198Z,7.42
2023-01-09T11:08:44.343Z,7.44
2023-01-09T11:11:12.764Z,7.27
2023-01-09T11:13:43.541Z,7.50
2023-01-09T11:16:23.979Z,7.48
2023-01-09T11:18:57.591Z,7.53
2023-01-09T11:21:40.578Z,7.55
2023-01-09T11:24:19.003Z,7.62
2023-01-09T11:26:47.753Z,7.76
2023-01-09T11:29:18.914Z,7.73
2023-01-09T11:31:58.317Z,7.62
2023-01-09T11:34:31.177Z,7.71
2023-01-09T11:37:10.616Z,7.71
2023-01-09T11:39:45.321Z,7.76
2023-01-09T11:42:41.971Z,7.67
2023-01-09T11:45:20.500Z,7.66
2023-01-09T11:47:47.677Z,7.70
2023-01-09T11:50:26.956Z,7.48
2023-01-09T11:53:17.424Z,7.17
2023-01-09T11:55:46.361Z,7.10
2023-01-09T11:58:21.000Z,7.09
2023-01-09T12:01:30.302Z,7.20
2023-01-09T12:04:23.454Z,7.04
2023-01-09T12:07:20.918Z,6.79
2023-01-09T12:10:08.078Z,6.67
2023-01-09T12:13:02.045Z,6.48
2023-01-09T12:15:38.451Z,6.70
2023-01-09T12:18:37.561Z,6.86
2023-01-09T12:21:48.319Z,6.85
2023-01-09T12:24:39.971Z,6.85
2023-01-09T12:27:30.493Z,7.00
2023-01-09T12:30:26.078Z,6.93
2023-01-09T12:33:25.479Z,7.14
2023-01-09T12:36:42.765Z,7.14
2023-01-09T12:39:39.557Z,7.20
2023-01-09T12:42:35.108Z,7.28
2023-01-09T12:45:29.873Z,7.20
2023-01-09T12:48:42.947Z,6.94
2023-01-09T12:51:23.531Z,7.03
2023-01-09T12:54:34.205Z,6.96
2023-01-09T12:57:13.998Z,6.90
2023-01-09T12:59:52.924Z,6.90
2023-01-09T13:02:35.377Z,6.92
2023-01-09T13:05:20.392Z,6.99
2023-01-09T13:08:04.965Z,7.13
2023-01-09T13:10:50.537Z,7.05
2023-01-09T13:13:26.730Z,7.10
2023-01-09T13:15:58.312Z,7.19
2023-01-09T13:18:41.872Z,7.26
2023-01-09T13:21:11.743Z,7.29
2023-01-09T13:23:59.339Z,7.32
2023-01-09T13:26:34.930Z,7.19
2023-01-09T13:29:22.289Z,7.00
2023-01-09T13:32:27.840Z,6.81
2023-01-09T13:34:57.591Z,6.68
2023-01-09T13:37:32.836Z,6.72
2023-01-09T13:40:29.306Z,6.76
2023-01-09T13:42:58.250Z,6.65
2023-01-09T13:45:29.179Z,6.62
2023-01-09T13:48:11.131Z,6.65
2023-01-09T13:50:39.611Z,6.76
2023-01-09T13:53:18.527Z,6.54
2023-01-09T13:55:56.977Z,6.67
2023-01-09T13:58:51.497Z,6.82
2023-01-09T14:01:39.686Z,6.88
2023-01-09T14:04:14.031Z,6.88
2023-01-09T14:06:41.700Z,6.91
2023-01-09T14:09:23.009Z,6.83
2023-01-09T14:12:04.836Z,6.87
2023-01-09T14:14:34.627Z,6.93
2023-01-09T14:17:03.310Z,7.04
2023-01-09T14:19:40.089Z,6.85
2023-01-09T14:22:07.934Z,6.57
2023-01-09T14:24:43.950Z,6.88
2023-01-09T14:28:06.731Z,6.75
2023-01-09T14:30:59.863Z,6.80
2023-01-09T14:33:32.847Z,6.91
2023-01-09T14:36:21.717Z,6.96
2023-01-09T14:39:00.067Z,6.98
2023-01-09T14:42:05.590Z,6.96
2023-01-09T14:44:50.655Z,6.88
2023-01-09T14:47:53.347Z,6.84
2023-01-09T14:51:02.591Z,6.87
2023-01-09T14:53:34.524Z,6.95
2023-01-09T14:56:06.565Z,7.00
2023-01-09T14:58:36.093Z,7.01
2023-01-09T15:01:22.799Z,7.00
2023-01-09T15:03:58.817Z,7.02
2023-01-09T15:06:30.864Z,7.07
2023-01-09T15:09:04.264Z,7.05
2023-01-09T15:11:33.673Z,7.11
2023-01-09T15:14:04.347Z,7.08
2023-01-09T15:16:32.896Z,6.99
2023-01-09T15:19:06.148Z,6.98
2023-01-09T15:21:32.913Z,6.87
2023-01-09T15:24:34.499Z,6.77
2023-01-09T15:27:15.545Z,6.79
2023-01-09T15:29:42.044Z,6.75
2023-01-09T15:32:18.773Z,6.75
2023-01-09T15:34:48.222Z,6.78
2023-01-09T15:37:39.230Z,6.66
2023-01-09T15:40:17.300Z,6.78
2023-01-09T15:42:58.322Z,6.71
2023-01-09T15:45:37.082Z,6.62
2023-01-09T15:48:22.584Z,6.59
2023-01-09T15:50:55.702Z,6.58
2023-01-09T15:53:26.576Z,6.58
2023-01-09T15:56:16.674Z,6.58
2023-01-09T15:58:49.265Z,6.62
2023-01-09T16:01:24.844Z,6.55
2023-01-09T16:03:52.620Z,6.50
2023-01-09T16:06:28.842Z,6.27
2023-01-09T16:08:59.524Z,6.15
2023-01-09T16:11:30.976Z,6.10
2023-01-09T16:14:13.489Z,6.13
2023-01-09T16:16:41.625Z,6.21
2023-01-09T16:19:50.214Z,6.11
2023-01-09T16:22:29.569Z,6.12
2023-01-09T16:25:32.443Z,6.07
2023-01-09T16:28:28.316Z,6.02
2023-01-09T16:31:05.076Z,6.18
2023-01-09T16:33:32.453Z,6.24
2023-01-09T16:35:59.185Z,6.28
2023-01-09T16:38:26.336Z,6.28
2023-01-09T16:41:17.231Z,6.27
2023-01-09T16:43:43.999Z,6.25
2023-01-09T16:46:11.553Z,6.28
2023-01-09T16:48:40.174Z,6.31
2023-01-09T16:51:13.594Z,6.34
2023-01-09T16:53:40.123Z,6.29
2023-01-09T16:56:17.539Z,6.23
2023-01-09T16:58:44.808Z,6.23
2023-01-09T17:01:13.446Z,6.19
2023-01-09T17:03:44.561Z,6.22
2023-01-09T17:06:22.991Z,5.87
2023-01-09T17:08:51.365Z,5.89
2023-01-09T17:11:23.652Z,6.00
2023-01-09T17:13:50.671Z,5.82
2023-01-09T17:16:18.132Z,5.93
2023-01-09T17:18:45.456Z,5.97
2023-01-09T17:21:25.042Z,5.98
2023-01-09T17:24:10.330Z,5.98
2023-01-09T17:26:58.064Z,6.00
2023-01-09T17:29:25.054Z,6.03
2023-01-09T17:31:51.856Z,6.12
2023-01-09T17:34:18.536Z,6.05
2023-01-09T17:36:45.830Z,5.98
2023-01-09T17:39:17.664Z,6.03
2023-01-09T17:41:44.525Z,5.99
2023-01-09T17:44:12.406Z,6.02
2023-01-09T17:46:42.861Z,6.07
2023-01-09T17:49:21.478Z,6.07
2023-01-09T17:51:48.720Z,6.20
2023-01-09T17:54:15.687Z,6.12
2023-01-09T17:56:48.880Z,6.12
2023-01-09T17:59:16.194Z,6.10
2023-01-09T18:01:44.587Z,5.98
2023-01-09T18:04:11.714Z,6.11
2023-01-09T18:06:38.657Z,6.13
2023-01-09T18:09:06.752Z,6.11
2023-01-09T18:11:36.166Z,6.19
2023-01-09T18:14:02.651Z,6.14
2023-01-09T18:16:29.332Z,6.14
2023-01-09T18:18:58.738Z,6.09
2023-01-09T18:21:27.983Z,6.06
2023-01-09T18:23:56.088Z,5.98
2023-01-09T18:26:22.923Z,5.96
2023-01-09T18:28:56.990Z,6.02
2023-01-09T18:31:25.940Z,6.04
2023-01-09T18:33:56.392Z,5.98
2023-01-09T18:36:30.579Z,6.02
2023-01-09T18:39:00.868Z,6.09
2023-01-09T18:41:29.561Z,6.13
2023-01-09T18:44:01.541Z,6.03
2023-01-09T18:46:31.858Z,6.07
2023-01-09T18:49:03.204Z,6.06
2023-01-09T18:51:32.212Z,6.10
2023-01-09T18:53:58.772Z,6.08
2023-01-09T18:56:26.506Z,6.02
2023-01-09T18:58:57.968Z,6.09
2023-01-09T19:01:26.436Z,6.10
2023-01-09T19:03:53.206Z,6.09
2023-01-09T19:06:19.861Z,6.05
2023-01-09T19:08:46.417Z,5.98
2023-01-09T19:11:13.511Z,5.98
2023-01-09T19:13:40.017Z,5.89
2023-01-09T19:16:09.833Z,5.77
2023-01-09T19:18:41.534Z,5.74
2023-01-09T19:21:21.281Z,5.71
2023-01-09T19:23:49.406Z,5.74
2023-01-09T19:26:23.736Z,5.82
2023-01-09T19:28:54.870Z,5.75
2023-01-09T19:31:24.230Z,5.82
2023-01-09T19:33:52.371Z,5.92
2023-01-09T19:36:19.895Z,5.93
2023-01-09T19:38:46.718Z,5.90
2023-01-09T19:41:19.036Z,5.88
2023-01-09T19:43:47.650Z,5.92
2023-01-09T19:46:21.801Z,5.91
2023-01-09T19:48:49.373Z,5.97
2023-01-09T19:51:19.352Z,5.94
2023-01-09T19:56:29.905Z,5.91
2023-01-09T19:59:00.115Z,5.80
2023-01-09T20:01:39.353Z,5.72
2023-01-09T20:04:13.302Z,5.78
2023-01-09T20:06:46.361Z,5.78
2023-01-09T20:09:17.510Z,5.84
2023-01-09T20:11:44.758Z,5.91
2023-01-09T20:14:17.608Z,5.94
2023-01-09T20:16:47.337Z,5.86
2023-01-09T20:19:15.956Z,5.62
2023-01-09T20:21:43.147Z,5.63
2023-01-09T20:24:16.511Z,5.61
2023-01-09T20:26:43.638Z,5.59
2023-01-09T20:29:10.146Z,5.64
2023-01-09T20:31:37.179Z,5.47
2023-01-09T20:34:03.835Z,5.42
2023-01-09T20:36:32.096Z,5.54
2023-01-09T20:39:01.855Z,5.55
2023-01-09T20:41:30.640Z,5.61
2023-01-09T20:44:11.169Z,5.65
2023-01-09T20:46:42.294Z,5.65
2023-01-09T20:49:13.203Z,5.63
2023-01-09T20:51:47.788Z,5.64
2023-01-09T20:54:15.843Z,5.61
2023-01-09T20:56:42.787Z,5.60
2023-01-09T20:59:17.090Z,5.57
2023-01-09T21:01:43.874Z,5.67
2023-01-09T21:04:11.516Z,5.79
2023-01-09T21:06:38.499Z,5.82
2023-01-09T21:09:06.571Z,5.83
2023-01-09T21:11:33.545Z,5.59
2023-01-09T21:14:00.235Z,5.52
2023-01-09T21:16:26.870Z,5.62
2023-01-09T21:18:55.128Z,5.75
2023-01-09T21:21:27.133Z,5.74
2023-01-09T21:23:57.293Z,5.72
2023-01-09T21:26:28.264Z,5.86
2023-01-09T21:28:57.525Z,5.92
2023-01-09T21:31:35.183Z,5.88
2023-01-09T21:34:06.738Z,5.90
2023-01-09T21:36:35.172Z,5.75
2023-01-09T21:39:02.151Z,5.63
2023-01-09T21:41:47.228Z,5.59
2023-01-09T21:44:32.607Z,5.66
2023-01-09T21:47:02.547Z,5.36
2023-01-09T21:49:34.623Z,5.42
2023-01-09T21:52:03.919Z,5.33
2023-01-09T21:54:31.254Z,5.39
2023-01-09T21:56:58.886Z,5.53
2023-01-09T21:59:25.678Z,5.63
2023-01-09T22:01:52.597Z,5.57
2023-01-09T22:04:23.989Z,5.50
2023-01-09T22:06:52.975Z,5.48
2023-01-09T22:09:19.520Z,5.45
2023-01-09T22:11:46.427Z,5.51
2023-01-09T22:14:16.830Z,5.58
2023-01-09T22:16:45.696Z,5.59
2023-01-09T22:19:14.307Z,5.50
2023-01-09T22:21:41.048Z,5.56
2023-01-09T22:24:07.973Z,5.47
2023-01-09T22:26:35.163Z,5.53
2023-01-09T22:29:01.829Z,5.56
2023-01-09T22:31:29.202Z,5.48
2023-01-09T22:33:58.669Z,4.97
2023-01-09T22:36:28.219Z,4.71
2023-01-09T22:38:59.680Z,4.50
2023-01-09T22:41:29.784Z,4.45
2023-01-09T22:43:56.686Z,4.60
2023-01-09T22:46:23.361Z,4.70
2023-01-09T22:48:50.063Z,4.71
2023-01-09T22:51:19.558Z,4.76
2023-01-09T22:53:46.477Z,4.84
2023-01-09T22:56:16.921Z,4.95
2023-01-09T22:58:44.246Z,5.05
2023-01-09T23:01:12.428Z,5.05
2023-01-09T23:03:40.288Z,5.13
2023-01-09T23:06:12.600Z,5.12
2023-01-09T23:08:39.982Z,5.12
2023-01-09T23:11:11.546Z,5.19
2023-01-09T23:13:39.340Z,5.20
2023-01-09T23:16:07.133Z,5.20
2023-01-09T23:18:34.367Z,5.20
2023-01-09T23:21:04.925Z,5.13
2023-01-09T23:23:33.207Z,5.08
2023-01-09T23:26:04.776Z,5.18
2023-01-09T23:28:31.334Z,5.31
2023-01-09T23:30:57.866Z,5.39
2023-01-09T23:33:25.077Z,5.43
2023-01-09T23:35:51.596Z,5.44
2023-01-09T23:38:18.070Z,5.44
2023-01-09T23:40:44.523Z,5.42
2023-01-09T23:43:13.098Z,5.33
2023-01-09T23:45:45.610Z,5.29
2023-01-09T23:48:15.172Z,5.42
2023-01-09T23:50:50.804Z,5.42
2023-01-09T23:53:22.020Z,5.44
2023-01-09T23:55:49.533Z,5.52
2023-01-09T23:58:16.042Z,5.46
